Wynola (221) Station Data

Red Flag Warning: No
Fire Weather Zone: 258
SDGE Region: Ramona
Lat/Lon: 33.105/-116.603

Observations

Time Wind Speed/Gust Temp(F) RH Fuel Moist Fuel Temp(F) Dewpt(F) Tmax(F) Tmin(F) Accum Precip 10-min Precip SL Press(mb)
5/24 8:30am 341 3 G 6 65° 46% - - 44° 70.2° 58.8° - - -
5/24 8:20am 349 6 G 9 64° 47% - - 43° 70.2° 58.8° - - -
5/24 8:10am 330 4 G 7 65° 46% - - 44° 70.2° 58.8° - - -
5/24 8:00am 301 3 G 7 68° 46% - - 46° 70.2° 58.8° - - -
5/24 7:50am 304 4 G 8 69° 42% - - 45° 70.2° 58.8° - - -
5/24 7:40am 328 3 G 6 69° 39% - - 43° 69.9° 58.8° - - -
5/24 7:30am 7 4 G 6 69° 37% - - 41° 69.1° 58.8° - - -
5/24 7:20am 0 3 G 5 68° 39% - - 42° 68.4° 58.8° - - -
5/24 7:10am 347 3 G 4 66° 41% - - 42° 67.5° 58.8° - - -
5/24 7:00am 327 2 G 2 66° 40% - - 41° 67.5° 58.8° - - -
5/24 6:50am 289 2 G 3 66° 35% - - 37° 67.5° 58.8° - - -
5/24 6:40am 322 2 G 3 65° 35% - - 36° 67.5° 58.8° - - -
5/24 6:30am 349 2 G 3 63° 40% - - 38° 67.5° 58.8° - - -
5/24 6:20am 333 2 G 3 60° 44% - - 38° 67.5° 58.8° - - -
5/24 6:10am 307 2 G 5 59° 46% - - 39° 67.5° 58.8° - - -
5/24 6:00am 285 3 G 4 61° 42% - - 38° 67.5° 59.2° - - -
5/24 5:50am 298 3 G 4 63° 39% - - 37° 67.5° 59.2° - - -
5/24 5:40am 345 4 G 6 64° 37% - - 37° 67.5° 59.2° - - -
5/24 5:30am 348 4 G 6 61° 41% - - 38° 67.5° 59.2° - - -
5/24 5:20am 349 4 G 5 61° 41% - - 37° 67.5° 59.2° - - -
5/24 5:10am 338 3 G 5 61° 42% - - 37° 67.5° 59.2° - - -
5/24 5:00am 334 4 G 6 63° 38% - - 37° 67.5° 61.1° - - -
5/24 4:50am 335 3 G 5 62° 39% - - 37° 67.5° 61.1° - - -
5/24 4:40am 321 3 G 5 64° 35% - - 36° 67.5° 62.3° - - -
5/24 4:30am 346 4 G 6 65° 34% - - 35° 67.5° 62.6° - - -
5/24 4:20am 352 4 G 6 65° 33% - - 35° 67.5° 62.6° - - -
5/24 4:10am 344 4 G 6 64° 34% - - 35° 67.5° 62.6° - - -
5/24 4:00am 339 4 G 6 63° 34% - - 34° 67.5° 62.6° - - -
5/24 3:50am 343 4 G 5 64° 31% - - 33° 67.5° 63.1° - - -
5/24 3:40am 347 3 G 5 65° 31% - - 33° 67.5° 63.1° - - -
5/24 3:30am 350 4 G 6 65° 30% - - 33° 67.5° 63.1° - - -
5/24 3:20am 350 4 G 5 66° 28% - - 32° 67.5° 63.1° - - -
5/24 3:10am 356 4 G 5 66° 29% - - 33° 67.5° 63.1° - - -
5/24 3:00am 4 4 G 5 66° 32% - - 35° 67.5° 63.1° - - -
5/24 2:50am 352 2 G 4 66° 33% - - 36° 67.5° 63.1° - - -
5/24 2:40am 329 2 G 3 67° 33% - - 37° 67.5° 63.1° - - -
5/24 2:30am 319 2 G 3 67° 33% - - 37° 67.5° 63.1° - - -
5/24 2:20am 309 3 G 4 67° 35% - - 38° 67.5° 63.1° - - -
5/24 2:10am 308 3 G 4 66° 36% - - 38° 67.5° 63.1° - - -
5/24 2:00am 292 3 G 4 64° 41% - - 40° 67.5° 63.1° - - -
5/24 1:50am 280 5 G 6 64° 42% - - 40° 67.5° 63.1° - - -
5/24 1:40am 324 4 G 5 66° 37% - - 39° 67.5° 63.6° - - -
5/24 1:30am 340 4 G 6 66° 42% - - 42° 67.5° 63.6° - - -
5/24 1:20am 337 3 G 4 65° 45% - - 43° 67.5° 63.6° - - -
5/24 1:10am 338 3 G 5 65° 43% - - 42° 67.5° 63.6° - - -
5/24 1:00am 343 3 G 4 65° 41% - - 41° 67.5° 63.6° - - -
5/24 12:50am 345 3 G 5 64° 42% - - 41° 67.5° 63.6° - - -
5/24 12:40am 303 3 G 5 65° 41% - - 40° 67.5° 63.6° - - -
5/24 12:30am 296 4 G 5 65° 39% - - 40° 67.5° 63.6° - - -
5/24 12:20am 347 4 G 5 66° 38% - - 39° 67.5° 64.7° - - -
5/24 12:10am 348 4 G 5 67° 37% - - 40° 67.5° 65.8° - - -
5/24 12:00am 347 4 G 5 67° 35% - - 39° 86.5° 61° - - -
5/23 11:50pm 344 3 G 5 68° 33% - - 37° 86.5° 61° - - -
5/23 11:40pm 347 3 G 4 67° 33% - - 37° 86.5° 61° - - -
5/23 11:30pm 305 3 G 5 66° 32% - - 35° 86.5° 61° - - -
5/23 11:20pm 268 3 G 4 64° 35% - - 36° 86.5° 61° - - -
5/23 11:10pm 276 3 G 4 65° 35% - - 37° 86.5° 61° - - -
5/23 11:00pm 289 4 G 5 68° 32% - - 37° 86.5° 61° - - -
5/23 10:50pm 324 3 G 4 69° 31% - - 37° 86.5° 61° - - -
5/23 10:40pm 341 3 G 4 69° 29% - - 36° 86.5° 61° - - -
5/23 10:30pm 343 3 G 4 69° 29% - - 35° 86.5° 61° - - -
5/23 10:20pm 346 3 G 4 68° 30% - - 36° 86.5° 61° - - -
5/23 10:10pm 301 2 G 3 69° 29% - - 35° 86.5° 61° - - -
5/23 10:00pm 325 2 G 3 68° 30% - - 36° 86.5° 61° - - -
5/23 9:50pm 299 3 G 4 68° 32% - - 37° 86.5° 61° - - -
5/23 9:40pm 331 2 G 4 67° 35% - - 38° 86.5° 61° - - -
5/23 9:30pm 288 4 G 6 67° 38% - - 41° 86.5° 61° - - -
5/23 9:20pm 290 3 G 4 67° 46% - - 45° 86.5° 61° - - -
5/23 9:10pm 298 3 G 4 66° 52% - - 48° 86.5° 61° - - -
5/23 9:00pm 284 4 G 6 67° 54% - - 49° 86.5° 61° - - -
5/23 8:50pm 314 4 G 7 68° 52% - - 50° 86.5° 61° - - -
5/23 8:40pm 331 4 G 7 67° 57% - - 51° 86.5° 61° - - -
5/23 8:30pm 350 4 G 6 67° 57% - - 51° 86.5° 61° - - -
5/23 8:20pm 339 3 G 5 67° 56% - - 51° 86.5° 61° - - -
5/23 8:10pm 347 4 G 6 68° 55% - - 51° 86.5° 61° - - -
5/23 8:00pm 352 3 G 5 68° 55% - - 51° 86.5° 61° - - -
5/23 7:50pm 346 3 G 4 69° 53% - - 51° 86.5° 61° - - -
5/23 7:40pm 321 3 G 4 70° 50% - - 50° 86.5° 61° - - -
5/23 7:30pm 320 3 G 7 71° 42% - - 47° 86.5° 61° - - -
5/23 7:20pm 324 3 G 5 73° 35% - - 44° 86.5° 61° - - -
5/23 7:10pm 309 3 G 6 74° 36% - - 45° 86.5° 61° - - -
5/23 7:00pm 312 2 G 5 75° 34% - - 45° 86.5° 61° - - -
5/23 6:50pm 294 3 G 8 76° 32% - - 43° 86.5° 61° - - -
5/23 6:40pm 294 4 G 8 76° 32% - - 44° 86.5° 61° - - -
5/23 6:30pm 318 5 G 7 76° 28% - - 41° 86.5° 61° - - -
5/23 6:20pm 318 5 G 8 76° 30% - - 43° 86.5° 61° - - -
5/23 6:10pm 310 5 G 8 77° 31% - - 44° 86.5° 61° - - -
5/23 6:00pm 307 4 G 7 77° 32% - - 45° 86.5° 61° - - -
5/23 5:50pm 314 4 G 8 77° 36% - - 48° 86.5° 61° - - -
5/23 5:40pm 305 5 G 8 77° 38% - - 49° 86.5° 61° - - -
5/23 5:30pm 303 4 G 8 77° 37% - - 48° 86.5° 61° - - -
5/23 5:20pm 295 5 G 10 76° 37% - - 48° 86.5° 61° - - -
5/23 5:10pm 293 5 G 9 76° 38% - - 48° 86.5° 61° - - -
5/23 5:00pm 297 4 G 8 76° 42% - - 51° 86.5° 61° - - -
5/23 4:50pm 264 4 G 10 76° 42% - - 51° 86.5° 61° - - -
5/23 4:40pm 285 5 G 10 76° 41% - - 51° 86.5° 61° - - -
5/23 4:30pm 293 6 G 11 76° 42% - - 51° 86.5° 61° - - -
5/23 4:20pm 272 4 G 10 77° 43% - - 52° 86.5° 61° - - -
5/23 4:10pm 297 5 G 10 76° 44% - - 53° 86.5° 61° - - -
5/23 4:00pm 262 6 G 10 76° 44% - - 53° 86.5° 61° - - -
5/23 3:50pm 280 4 G 9 77° 46% - - 55° 86.5° 61° - - -
5/23 3:40pm 274 5 G 12 77° 46% - - 55° 86.5° 61° - - -
5/23 3:30pm 273 6 G 13 77° 46% - - 55° 86.5° 61° - - -
5/23 3:20pm 249 6 G 10 79° 42% - - 54° 86.5° 61° - - -
5/23 3:10pm 275 5 G 10 80° 38% - - 52° 86.5° 61° - - -
5/23 3:00pm 249 5 G 10 81° 37% - - 52° 86.5° 61° - - -
5/23 2:50pm 254 5 G 10 81° 33% - - 49° 86.5° 61° - - -
5/23 2:40pm 241 4 G 9 81° 31% - - 48° 86.5° 61° - - -
5/23 2:30pm 257 5 G 12 82° 32% - - 49° 86.5° 61° - - -
5/23 2:20pm 261 4 G 9 83° 28% - - 47° 86.5° 61° - - -
5/23 2:10pm 279 4 G 9 84° 24% - - 43° 86.5° 61° - - -
5/23 2:00pm 246 4 G 8 84° 24% - - 43° 86.5° 61° - - -
5/23 1:50pm 256 4 G 10 84° 23% - - 41° 86.5° 61° - - -
5/23 1:40pm 245 4 G 9 84° 21% - - 40° 86.5° 61° - - -
5/23 1:30pm 297 5 G 14 83° 22% - - 41° 86.5° 61° - - -
5/23 1:20pm 244 4 G 9 83° 23% - - 41° 86.5° 61° - - -
5/23 1:10pm 263 4 G 10 83° 22% - - 41° 86.5° 61° - - -
5/23 1:00pm 230 6 G 10 84° 21% - - 40° 86.5° 61° - - -
5/23 12:50pm 268 5 G 12 83° 24% - - 42° 86.5° 61° - - -
5/23 12:40pm 253 3 G 10 83° 22% - - 40° 86.5° 61° - - -
5/23 12:30pm 268 5 G 11 84° 21% - - 40° 86.5° 61° - - -
5/23 12:20pm 204 4 G 11 86° 14% - - 31° 86.5° 61° - - -
5/23 12:10pm 167 4 G 12 86° 12% - - 26° 86.5° 61° - - -
5/23 12:00pm 116 4 G 10 85° 11% - - 26° 86.1° 61° - - -
5/23 11:50am 129 6 G 17 85° 11% - - 25° 85.7° 61° - - -
5/23 11:40am 126 7 G 15 85° 12% - - 26° 85.7° 61° - - -
5/23 11:30am 123 9 G 18 85° 11% - - 25° 85.7° 61° - - -
5/23 11:20am 139 7 G 15 85° 12% - - 26° 85.7° 61° - - -
5/23 11:10am 175 4 G 10 85° 12% - - 27° 85.7° 61° - - -
5/23 11:00am 169 5 G 11 85° 12% - - 27° 85.7° 61° - - -
5/23 10:50am 118 5 G 11 84° 12% - - 27° 85.1° 61° - - -
5/23 10:40am 142 5 G 11 84° 13% - - 28° 85.1° 61° - - -
5/23 10:30am 149 4 G 11 84° 13% - - 28° 84.9° 61° - - -
5/23 10:20am 106 4 G 10 84° 13% - - 27° 84.9° 61° - - -
5/23 10:10am 139 4 G 10 84° 13% - - 29° 84.9° 61° - - -
5/23 10:00am 125 4 G 9 83° 13% - - 27° 84.9° 61° - - -
5/23 9:50am 117 5 G 8 82° 14% - - 28° 84.9° 61° - - -
5/23 9:40am 155 4 G 8 82° 16% - - 31° 84.9° 61° - - -
5/23 9:30am 121 4 G 6 81° 20% - - 35° 84.9° 61° - - -
5/23 9:20am 121 5 G 7 81° 18% - - 33° 84.9° 61° - - -
5/23 9:10am 117 3 G 6 83° 16% - - 32° 84.9° 61° - - -
5/23 9:00am 138 1 G 3 84° 14% - - 30° 84.9° 61° - - -
5/23 8:50am 170 1 G 2 85° 15% - - 32° 84.9° 61° - - -
5/23 8:40am 113 0 G 1 83° 20% - - 38° 84° 61° - - -
5/23 8:30am 113 1 G 2 81° 32% - - 48° 81.8° 61° - - -
5/23 8:20am 246 0 G 1 79° 34% - - 48° 80.7° 61° - - -
5/23 8:10am 253 0 G 1 78° 41% - - 52° 78.9° 61° - - -
5/23 8:00am 267 1 G 2 77° 40% - - 50° 77.3° 61° - - -
5/23 7:50am 325 0 G 1 77° 41% - - 51° 77.2° 61° - - -
5/23 7:40am 297 0 G 1 76° 37% - - 48° 76.8° 61° - - -
5/23 7:30am 285 1 G 2 73° 33% - - 42° 74.2° 61° - - -
5/23 7:20am 282 1 G 3 70° 35% - - 41° 71.5° 61° - - -
5/23 7:10am 271 2 G 3 69° 33% - - 38° 69.4° 61° - - -
5/23 7:00am 291 2 G 3 68° 31% - - 36° 69.1° 61° - - -
5/23 6:50am 271 3 G 4 67° 28% - - 33° 69.1° 61° - - -
5/23 6:40am 283 3 G 5 65° 29% - - 32° 69.1° 61° - - -
5/23 6:30am 276 3 G 4 65° 27% - - 31° 69.1° 61° - - -
5/23 6:20am 277 2 G 4 65° 27% - - 30° 69.1° 61° - - -
5/23 6:10am 280 2 G 4 65° 27% - - 30° 69.1° 61° - - -
5/23 6:00am 272 3 G 5 64° 27% - - 30° 69.1° 61° - - -